sensor_id;sensor_type;location;lat;lon;timestamp;temperature;humidity
20158;DHT22;10239;56.820;24.416;2023-11-18T00:00:15;0.80;99.90
20158;DHT22;10239;56.820;24.416;2023-11-18T00:02:44;0.80;99.90
20158;DHT22;10239;56.820;24.416;2023-11-18T00:05:13;0.80;99.90
20158;DHT22;10239;56.820;24.416;2023-11-18T00:07:42;0.80;99.90
20158;DHT22;10239;56.820;24.416;2023-11-18T00:10:10;0.70;99.90
20158;DHT22;10239;56.820;24.416;2023-11-18T00:12:38;0.80;99.90
20158;DHT22;10239;56.820;24.416;2023-11-18T00:15:09;0.80;99.90
20158;DHT22;10239;56.820;24.416;2023-11-18T00:17:40;0.80;99.90
20158;DHT22;10239;56.820;24.416;2023-11-18T00:20:08;0.80;99.90
20158;DHT22;10239;56.820;24.416;2023-11-18T00:22:37;0.90;99.90
20158;DHT22;10239;56.820;24.416;2023-11-18T00:25:05;0.80;99.90
20158;DHT22;10239;56.820;24.416;2023-11-18T00:27:35;0.80;99.90
20158;DHT22;10239;56.820;24.416;2023-11-18T00:30:07;0.80;99.90
20158;DHT22;10239;56.820;24.416;2023-11-18T00:32:40;0.80;99.90
20158;DHT22;10239;56.820;24.416;2023-11-18T00:35:09;0.70;99.90
20158;DHT22;10239;56.820;24.416;2023-11-18T00:37:38;0.80;99.90
20158;DHT22;10239;56.820;24.416;2023-11-18T00:40:08;0.90;99.90
20158;DHT22;10239;56.820;24.416;2023-11-18T00:42:37;0.80;99.90
20158;DHT22;10239;56.820;24.416;2023-11-18T00:45:05;0.90;99.90
20158;DHT22;10239;56.820;24.416;2023-11-18T00:47:34;0.90;99.90
20158;DHT22;10239;56.820;24.416;2023-11-18T00:50:02;0.80;99.90
20158;DHT22;10239;56.820;24.416;2023-11-18T00:52:30;0.90;99.90
20158;DHT22;10239;56.820;24.416;2023-11-18T00:54:58;0.80;99.90
20158;DHT22;10239;56.820;24.416;2023-11-18T00:57:25;0.80;99.90
20158;DHT22;10239;56.820;24.416;2023-11-18T00:59:53;0.60;99.90
20158;DHT22;10239;56.820;24.416;2023-11-18T01:02:22;0.70;99.90
20158;DHT22;10239;56.820;24.416;2023-11-18T01:04:49;0.90;99.90
20158;DHT22;10239;56.820;24.416;2023-11-18T01:07:17;0.90;99.90
20158;DHT22;10239;56.820;24.416;2023-11-18T01:09:45;0.90;99.90
20158;DHT22;10239;56.820;24.416;2023-11-18T01:12:13;0.90;99.90
20158;DHT22;10239;56.820;24.416;2023-11-18T01:14:41;0.80;99.90
20158;DHT22;10239;56.820;24.416;2023-11-18T01:17:09;0.80;99.90
20158;DHT22;10239;56.820;24.416;2023-11-18T01:19:38;1.00;99.90
20158;DHT22;10239;56.820;24.416;2023-11-18T01:22:05;0.90;99.90
20158;DHT22;10239;56.820;24.416;2023-11-18T01:24:33;0.80;99.90
20158;DHT22;10239;56.820;24.416;2023-11-18T01:27:01;0.90;99.90
20158;DHT22;10239;56.820;24.416;2023-11-18T01:29:29;0.70;99.90
20158;DHT22;10239;56.820;24.416;2023-11-18T01:31:56;0.60;99.90
20158;DHT22;10239;56.820;24.416;2023-11-18T01:34:24;0.70;99.90
20158;DHT22;10239;56.820;24.416;2023-11-18T01:36:53;0.90;99.90
20158;DHT22;10239;56.820;24.416;2023-11-18T01:39:20;1.00;99.90
20158;DHT22;10239;56.820;24.416;2023-11-18T01:41:48;0.90;99.90
20158;DHT22;10239;56.820;24.416;2023-11-18T01:44:17;0.80;99.90
20158;DHT22;10239;56.820;24.416;2023-11-18T01:46:47;1.00;99.90
20158;DHT22;10239;56.820;24.416;2023-11-18T01:49:15;0.90;99.90
20158;DHT22;10239;56.820;24.416;2023-11-18T01:51:45;0.90;99.90
20158;DHT22;10239;56.820;24.416;2023-11-18T01:54:15;0.90;99.90
20158;DHT22;10239;56.820;24.416;2023-11-18T01:56:48;1.00;99.90
20158;DHT22;10239;56.820;24.416;2023-11-18T01:59:16;0.70;99.90
20158;DHT22;10239;56.820;24.416;2023-11-18T02:01:52;0.80;99.90
20158;DHT22;10239;56.820;24.416;2023-11-18T02:04:28;0.80;99.90
20158;DHT22;10239;56.820;24.416;2023-11-18T02:06:57;0.90;99.90
20158;DHT22;10239;56.820;24.416;2023-11-18T02:09:25;0.70;99.90
20158;DHT22;10239;56.820;24.416;2023-11-18T02:12:08;0.70;99.90
20158;DHT22;10239;56.820;24.416;2023-11-18T02:14:39;0.70;99.90
20158;DHT22;10239;56.820;24.416;2023-11-18T02:17:09;0.80;99.90
20158;DHT22;10239;56.820;24.416;2023-11-18T02:19:39;0.90;99.90
20158;DHT22;10239;56.820;24.416;2023-11-18T02:22:08;1.00;99.90
20158;DHT22;10239;56.820;24.416;2023-11-18T02:24:38;1.00;99.90
20158;DHT22;10239;56.820;24.416;2023-11-18T02:27:09;1.00;99.90
20158;DHT22;10239;56.820;24.416;2023-11-18T02:29:45;1.00;99.90
20158;DHT22;10239;56.820;24.416;2023-11-18T02:32:37;0.80;99.90
20158;DHT22;10239;56.820;24.416;2023-11-18T02:37:44;0.80;99.90
20158;DHT22;10239;56.820;24.416;2023-11-18T02:40:19;0.90;99.90
20158;DHT22;10239;56.820;24.416;2023-11-18T02:42:50;0.80;99.90
20158;DHT22;10239;56.820;24.416;2023-11-18T02:45:21;0.90;99.90
20158;DHT22;10239;56.820;24.416;2023-11-18T02:47:49;0.90;99.90
20158;DHT22;10239;56.820;24.416;2023-11-18T02:50:16;0.80;99.90
20158;DHT22;10239;56.820;24.416;2023-11-18T02:52:46;0.80;99.90
20158;DHT22;10239;56.820;24.416;2023-11-18T02:55:14;0.60;99.90
20158;DHT22;10239;56.820;24.416;2023-11-18T02:57:41;0.80;99.90
20158;DHT22;10239;56.820;24.416;2023-11-18T03:00:09;0.70;99.90
20158;DHT22;10239;56.820;24.416;2023-11-18T03:02:45;0.80;99.90
20158;DHT22;10239;56.820;24.416;2023-11-18T03:05:14;0.60;99.90
20158;DHT22;10239;56.820;24.416;2023-11-18T03:07:42;0.70;99.90
20158;DHT22;10239;56.820;24.416;2023-11-18T03:10:11;0.80;99.90
20158;DHT22;10239;56.820;24.416;2023-11-18T03:12:49;0.70;99.90
20158;DHT22;10239;56.820;24.416;2023-11-18T03:15:16;0.80;99.90
20158;DHT22;10239;56.820;24.416;2023-11-18T03:17:48;0.80;99.90
20158;DHT22;10239;56.820;24.416;2023-11-18T03:20:19;0.60;99.90
20158;DHT22;10239;56.820;24.416;2023-11-18T03:22:47;0.50;99.90
20158;DHT22;10239;56.820;24.416;2023-11-18T03:25:15;0.60;99.90
20158;DHT22;10239;56.820;24.416;2023-11-18T03:27:43;0.70;99.90
20158;DHT22;10239;56.820;24.416;2023-11-18T03:30:14;0.90;99.90
20158;DHT22;10239;56.820;24.416;2023-11-18T03:32:42;0.90;99.90
20158;DHT22;10239;56.820;24.416;2023-11-18T03:35:10;0.90;99.90
20158;DHT22;10239;56.820;24.416;2023-11-18T03:37:39;0.90;99.90
20158;DHT22;10239;56.820;24.416;2023-11-18T03:40:11;0.80;99.90
20158;DHT22;10239;56.820;24.416;2023-11-18T03:42:43;0.80;99.90
20158;DHT22;10239;56.820;24.416;2023-11-18T03:45:14;0.80;99.90
20158;DHT22;10239;56.820;24.416;2023-11-18T03:47:45;0.80;99.90
20158;DHT22;10239;56.820;24.416;2023-11-18T03:50:14;0.60;99.90
20158;DHT22;10239;56.820;24.416;2023-11-18T03:52:42;0.70;99.90
20158;DHT22;10239;56.820;24.416;2023-11-18T03:55:10;0.70;99.90
20158;DHT22;10239;56.820;24.416;2023-11-18T03:57:37;0.70;99.90
20158;DHT22;10239;56.820;24.416;2023-11-18T04:00:05;0.70;99.90
20158;DHT22;10239;56.820;24.416;2023-11-18T04:02:36;0.70;99.90
20158;DHT22;10239;56.820;24.416;2023-11-18T04:05:05;0.80;99.90
20158;DHT22;10239;56.820;24.416;2023-11-18T04:07:33;0.60;99.90
20158;DHT22;10239;56.820;24.416;2023-11-18T04:10:00;0.70;99.90
20158;DHT22;10239;56.820;24.416;2023-11-18T04:12:28;0.60;99.90
20158;DHT22;10239;56.820;24.416;2023-11-18T04:14:58;0.70;99.90
20158;DHT22;10239;56.820;24.416;2023-11-18T04:17:26;0.60;99.90
20158;DHT22;10239;56.820;24.416;2023-11-18T04:19:55;0.50;99.90
20158;DHT22;10239;56.820;24.416;2023-11-18T04:22:24;0.50;99.90
20158;DHT22;10239;56.820;24.416;2023-11-18T04:24:53;0.60;99.90
20158;DHT22;10239;56.820;24.416;2023-11-18T04:27:20;0.70;99.90
20158;DHT22;10239;56.820;24.416;2023-11-18T04:29:49;0.80;99.90
20158;DHT22;10239;56.820;24.416;2023-11-18T04:32:16;0.70;99.90
20158;DHT22;10239;56.820;24.416;2023-11-18T04:34:44;0.70;99.90
20158;DHT22;10239;56.820;24.416;2023-11-18T04:37:12;0.60;99.90
20158;DHT22;10239;56.820;24.416;2023-11-18T04:39:39;0.70;99.90
20158;DHT22;10239;56.820;24.416;2023-11-18T04:42:08;0.70;99.90
20158;DHT22;10239;56.820;24.416;2023-11-18T04:44:35;0.80;99.90
20158;DHT22;10239;56.820;24.416;2023-11-18T04:47:03;0.70;99.90
20158;DHT22;10239;56.820;24.416;2023-11-18T04:49:31;0.70;99.90
20158;DHT22;10239;56.820;24.416;2023-11-18T04:51:59;0.70;99.90
20158;DHT22;10239;56.820;24.416;2023-11-18T04:54:26;0.70;99.90
20158;DHT22;10239;56.820;24.416;2023-11-18T04:56:54;0.80;99.90
20158;DHT22;10239;56.820;24.416;2023-11-18T04:59:23;0.80;99.90
20158;DHT22;10239;56.820;24.416;2023-11-18T05:01:51;0.80;99.90
20158;DHT22;10239;56.820;24.416;2023-11-18T05:04:20;0.80;99.90
20158;DHT22;10239;56.820;24.416;2023-11-18T05:06:48;0.90;99.90
20158;DHT22;10239;56.820;24.416;2023-11-18T05:09:16;0.80;99.90
20158;DHT22;10239;56.820;24.416;2023-11-18T05:11:45;0.80;99.90
20158;DHT22;10239;56.820;24.416;2023-11-18T05:14:14;0.70;99.90
20158;DHT22;10239;56.820;24.416;2023-11-18T05:16:44;0.70;99.90
20158;DHT22;10239;56.820;24.416;2023-11-18T05:19:12;0.80;99.90
20158;DHT22;10239;56.820;24.416;2023-11-18T05:21:39;0.80;99.90
20158;DHT22;10239;56.820;24.416;2023-11-18T05:24:08;0.80;99.90
20158;DHT22;10239;56.820;24.416;2023-11-18T05:26:35;0.80;99.90
20158;DHT22;10239;56.820;24.416;2023-11-18T05:29:03;0.80;99.90
20158;DHT22;10239;56.820;24.416;2023-11-18T05:31:31;0.70;99.90
20158;DHT22;10239;56.820;24.416;2023-11-18T05:34:01;0.80;99.90
20158;DHT22;10239;56.820;24.416;2023-11-18T05:36:30;0.90;99.90
20158;DHT22;10239;56.820;24.416;2023-11-18T05:39:05;0.80;99.90
20158;DHT22;10239;56.820;24.416;2023-11-18T05:41:32;0.80;99.90
20158;DHT22;10239;56.820;24.416;2023-11-18T05:44:02;0.70;99.90
20158;DHT22;10239;56.820;24.416;2023-11-18T05:46:30;0.70;99.90
20158;DHT22;10239;56.820;24.416;2023-11-18T05:49:03;0.80;99.90
20158;DHT22;10239;56.820;24.416;2023-11-18T05:51:35;0.80;99.90
20158;DHT22;10239;56.820;24.416;2023-11-18T05:54:03;0.80;99.90
20158;DHT22;10239;56.820;24.416;2023-11-18T05:56:31;0.80;99.90
20158;DHT22;10239;56.820;24.416;2023-11-18T05:58:59;0.70;99.90
20158;DHT22;10239;56.820;24.416;2023-11-18T06:01:30;0.70;99.90
20158;DHT22;10239;56.820;24.416;2023-11-18T06:03:58;0.80;99.90
20158;DHT22;10239;56.820;24.416;2023-11-18T06:06:26;0.80;99.90
20158;DHT22;10239;56.820;24.416;2023-11-18T06:08:54;0.80;99.90
20158;DHT22;10239;56.820;24.416;2023-11-18T06:11:22;0.70;99.90
20158;DHT22;10239;56.820;24.416;2023-11-18T06:13:52;0.70;99.90
20158;DHT22;10239;56.820;24.416;2023-11-18T06:16:22;0.70;99.90
20158;DHT22;10239;56.820;24.416;2023-11-18T06:18:52;0.70;99.90
20158;DHT22;10239;56.820;24.416;2023-11-18T06:21:22;0.80;99.90
20158;DHT22;10239;56.820;24.416;2023-11-18T06:23:56;0.80;99.90
20158;DHT22;10239;56.820;24.416;2023-11-18T06:26:24;0.70;99.90
20158;DHT22;10239;56.820;24.416;2023-11-18T06:28:55;0.50;99.90
20158;DHT22;10239;56.820;24.416;2023-11-18T06:31:23;0.40;99.90
20158;DHT22;10239;56.820;24.416;2023-11-18T06:33:52;0.40;99.90
20158;DHT22;10239;56.820;24.416;2023-11-18T06:36:21;0.60;99.90
20158;DHT22;10239;56.820;24.416;2023-11-18T06:38:51;0.50;99.90
20158;DHT22;10239;56.820;24.416;2023-11-18T06:41:23;0.60;99.90
20158;DHT22;10239;56.820;24.416;2023-11-18T06:43:51;0.50;99.90
20158;DHT22;10239;56.820;24.416;2023-11-18T06:46:26;0.70;99.90
20158;DHT22;10239;56.820;24.416;2023-11-18T06:48:56;0.60;99.90
20158;DHT22;10239;56.820;24.416;2023-11-18T06:51:32;0.70;99.90
20158;DHT22;10239;56.820;24.416;2023-11-18T06:54:04;0.80;99.90
20158;DHT22;10239;56.820;24.416;2023-11-18T06:56:38;0.70;99.90
20158;DHT22;10239;56.820;24.416;2023-11-18T06:59:06;0.70;99.90
20158;DHT22;10239;56.820;24.416;2023-11-18T07:01:35;0.90;99.90
20158;DHT22;10239;56.820;24.416;2023-11-18T07:04:03;0.70;99.90
20158;DHT22;10239;56.820;24.416;2023-11-18T07:06:36;0.80;99.90
20158;DHT22;10239;56.820;24.416;2023-11-18T07:09:09;0.80;99.90
20158;DHT22;10239;56.820;24.416;2023-11-18T07:11:41;0.70;99.90
20158;DHT22;10239;56.820;24.416;2023-11-18T07:14:09;0.60;99.90
20158;DHT22;10239;56.820;24.416;2023-11-18T07:16:39;0.60;99.90
20158;DHT22;10239;56.820;24.416;2023-11-18T07:19:07;0.80;99.90
20158;DHT22;10239;56.820;24.416;2023-11-18T07:21:37;0.80;99.90
20158;DHT22;10239;56.820;24.416;2023-11-18T07:24:05;0.90;99.90
20158;DHT22;10239;56.820;24.416;2023-11-18T07:26:33;0.40;99.90
20158;DHT22;10239;56.820;24.416;2023-11-18T07:29:01;0.50;99.90
20158;DHT22;10239;56.820;24.416;2023-11-18T07:31:29;0.70;99.90
20158;DHT22;10239;56.820;24.416;2023-11-18T07:33:56;0.80;99.90
20158;DHT22;10239;56.820;24.416;2023-11-18T07:36:24;0.70;99.90
20158;DHT22;10239;56.820;24.416;2023-11-18T07:38:53;0.60;99.90
20158;DHT22;10239;56.820;24.416;2023-11-18T07:41:20;0.60;99.90
20158;DHT22;10239;56.820;24.416;2023-11-18T07:43:51;0.80;99.90
20158;DHT22;10239;56.820;24.416;2023-11-18T07:46:23;0.40;99.90
20158;DHT22;10239;56.820;24.416;2023-11-18T07:48:51;0.50;99.90
20158;DHT22;10239;56.820;24.416;2023-11-18T07:51:19;0.50;99.90
20158;DHT22;10239;56.820;24.416;2023-11-18T07:53:51;0.30;99.90
20158;DHT22;10239;56.820;24.416;2023-11-18T07:56:20;0.30;99.90
20158;DHT22;10239;56.820;24.416;2023-11-18T07:58:51;0.10;99.90
20158;DHT22;10239;56.820;24.416;2023-11-18T08:01:20;0.30;99.90
20158;DHT22;10239;56.820;24.416;2023-11-18T08:03:49;0.50;99.90
20158;DHT22;10239;56.820;24.416;2023-11-18T08:06:18;0.80;99.90
20158;DHT22;10239;56.820;24.416;2023-11-18T08:08:46;0.90;99.90
20158;DHT22;10239;56.820;24.416;2023-11-18T08:11:15;0.90;99.90
20158;DHT22;10239;56.820;24.416;2023-11-18T08:13:44;0.70;99.90
20158;DHT22;10239;56.820;24.416;2023-11-18T08:16:11;0.60;99.90
20158;DHT22;10239;56.820;24.416;2023-11-18T08:18:41;0.60;99.90
20158;DHT22;10239;56.820;24.416;2023-11-18T08:21:08;0.80;99.90
20158;DHT22;10239;56.820;24.416;2023-11-18T08:23:36;0.90;99.90
20158;DHT22;10239;56.820;24.416;2023-11-18T08:26:04;1.00;99.90
20158;DHT22;10239;56.820;24.416;2023-11-18T08:28:33;0.90;99.90
20158;DHT22;10239;56.820;24.416;2023-11-18T08:31:00;0.60;99.90
20158;DHT22;10239;56.820;24.416;2023-11-18T08:33:28;0.30;99.90
20158;DHT22;10239;56.820;24.416;2023-11-18T08:35:56;0.60;99.90
20158;DHT22;10239;56.820;24.416;2023-11-18T08:38:24;0.50;99.90
20158;DHT22;10239;56.820;24.416;2023-11-18T08:40:52;0.90;99.90
20158;DHT22;10239;56.820;24.416;2023-11-18T08:43:20;0.60;99.90
20158;DHT22;10239;56.820;24.416;2023-11-18T08:45:48;0.50;99.90
20158;DHT22;10239;56.820;24.416;2023-11-18T08:48:17;0.30;99.90
20158;DHT22;10239;56.820;24.416;2023-11-18T08:50:46;0.10;99.90
20158;DHT22;10239;56.820;24.416;2023-11-18T08:53:15;0.30;99.90
20158;DHT22;10239;56.820;24.416;2023-11-18T08:55:46;0.40;99.90
20158;DHT22;10239;56.820;24.416;2023-11-18T08:58:22;0.50;99.90
20158;DHT22;10239;56.820;24.416;2023-11-18T09:00:52;0.70;99.90
20158;DHT22;10239;56.820;24.416;2023-11-18T09:03:22;0.50;99.90
20158;DHT22;10239;56.820;24.416;2023-11-18T09:05:57;0.60;99.90
20158;DHT22;10239;56.820;24.416;2023-11-18T09:08:26;0.50;99.90
20158;DHT22;10239;56.820;24.416;2023-11-18T09:10:55;0.40;99.90
20158;DHT22;10239;56.820;24.416;2023-11-18T09:13:23;0.80;99.90
20158;DHT22;10239;56.820;24.416;2023-11-18T09:16:00;0.90;99.90
20158;DHT22;10239;56.820;24.416;2023-11-18T09:18:30;0.50;99.90
20158;DHT22;10239;56.820;24.416;2023-11-18T09:20:59;0.60;99.90
20158;DHT22;10239;56.820;24.416;2023-11-18T09:23:29;0.70;99.90
20158;DHT22;10239;56.820;24.416;2023-11-18T09:25:59;0.40;99.90
20158;DHT22;10239;56.820;24.416;2023-11-18T09:28:27;0.60;99.90
20158;DHT22;10239;56.820;24.416;2023-11-18T09:30:57;0.60;99.90
20158;DHT22;10239;56.820;24.416;2023-11-18T09:33:26;0.70;99.90
20158;DHT22;10239;56.820;24.416;2023-11-18T09:36:02;0.80;99.90
20158;DHT22;10239;56.820;24.416;2023-11-18T09:38:31;0.90;99.90
20158;DHT22;10239;56.820;24.416;2023-11-18T09:41:00;0.60;99.90
20158;DHT22;10239;56.820;24.416;2023-11-18T09:43:31;0.60;99.90
20158;DHT22;10239;56.820;24.416;2023-11-18T09:46:29;1.00;99.90
20158;DHT22;10239;56.820;24.416;2023-11-18T09:49:22;0.80;99.90
20158;DHT22;10239;56.820;24.416;2023-11-18T09:52:04;0.70;99.90
20158;DHT22;10239;56.820;24.416;2023-11-18T09:55:00;0.80;99.90
20158;DHT22;10239;56.820;24.416;2023-11-18T09:57:39;1.00;99.90
20158;DHT22;10239;56.820;24.416;2023-11-18T10:00:11;0.80;99.90
20158;DHT22;10239;56.820;24.416;2023-11-18T10:02:56;1.20;99.90
20158;DHT22;10239;56.820;24.416;2023-11-18T10:05:26;0.90;99.90
20158;DHT22;10239;56.820;24.416;2023-11-18T10:07:55;1.00;99.90
20158;DHT22;10239;56.820;24.416;2023-11-18T10:10:24;1.00;99.90
20158;DHT22;10239;56.820;24.416;2023-11-18T10:12:54;1.40;99.90
20158;DHT22;10239;56.820;24.416;2023-11-18T10:15:25;1.30;99.90
20158;DHT22;10239;56.820;24.416;2023-11-18T10:17:54;1.50;99.90
20158;DHT22;10239;56.820;24.416;2023-11-18T10:23:09;1.10;99.90
20158;DHT22;10239;56.820;24.416;2023-11-18T10:25:52;1.10;99.90
20158;DHT22;10239;56.820;24.416;2023-11-18T10:28:28;1.30;99.90
20158;DHT22;10239;56.820;24.416;2023-11-18T10:30:56;1.10;99.90
20158;DHT22;10239;56.820;24.416;2023-11-18T10:33:36;1.40;99.90
20158;DHT22;10239;56.820;24.416;2023-11-18T10:36:05;1.30;99.90
20158;DHT22;10239;56.820;24.416;2023-11-18T10:38:40;1.30;99.90
20158;DHT22;10239;56.820;24.416;2023-11-18T10:41:18;1.40;99.90
20158;DHT22;10239;56.820;24.416;2023-11-18T10:43:47;1.10;99.90
20158;DHT22;10239;56.820;24.416;2023-11-18T10:46:17;1.30;99.90
20158;DHT22;10239;56.820;24.416;2023-11-18T10:48:47;1.50;99.90
20158;DHT22;10239;56.820;24.416;2023-11-18T10:51:17;1.60;99.90
20158;DHT22;10239;56.820;24.416;2023-11-18T10:53:47;1.50;99.90
20158;DHT22;10239;56.820;24.416;2023-11-18T10:56:27;1.30;99.90
20158;DHT22;10239;56.820;24.416;2023-11-18T10:58:56;1.70;99.90
20158;DHT22;10239;56.820;24.416;2023-11-18T11:01:36;1.40;99.90
20158;DHT22;10239;56.820;24.416;2023-11-18T11:04:13;1.10;99.90
20158;DHT22;10239;56.820;24.416;2023-11-18T11:06:45;1.40;99.90
20158;DHT22;10239;56.820;24.416;2023-11-18T11:09:27;1.80;99.90
20158;DHT22;10239;56.820;24.416;2023-11-18T11:11:57;1.50;99.90
20158;DHT22;10239;56.820;24.416;2023-11-18T11:14:34;1.50;99.90
20158;DHT22;10239;56.820;24.416;2023-11-18T11:17:13;1.50;99.90
20158;DHT22;10239;56.820;24.416;2023-11-18T11:19:55;1.70;99.90
20158;DHT22;10239;56.820;24.416;2023-11-18T11:22:57;1.50;99.90
20158;DHT22;10239;56.820;24.416;2023-11-18T11:29:19;1.20;99.90
20158;DHT22;10239;56.820;24.416;2023-11-18T11:31:37;1.30;99.90
20158;DHT22;10239;56.820;24.416;2023-11-18T11:34:14;1.40;99.90
20158;DHT22;10239;56.820;24.416;2023-11-18T11:36:46;1.70;99.90
20158;DHT22;10239;56.820;24.416;2023-11-18T11:39:35;1.70;99.90
20158;DHT22;10239;56.820;24.416;2023-11-18T11:42:04;1.60;99.90
20158;DHT22;10239;56.820;24.416;2023-11-18T11:44:37;1.60;99.90
20158;DHT22;10239;56.820;24.416;2023-11-18T11:47:09;1.60;99.90
20158;DHT22;10239;56.820;24.416;2023-11-18T11:49:59;1.40;99.90
20158;DHT22;10239;56.820;24.416;2023-11-18T11:52:31;1.40;99.90
20158;DHT22;10239;56.820;24.416;2023-11-18T11:55:12;1.40;99.90
20158;DHT22;10239;56.820;24.416;2023-11-18T11:57:42;1.40;99.90
20158;DHT22;10239;56.820;24.416;2023-11-18T12:00:17;1.40;99.90
20158;DHT22;10239;56.820;24.416;2023-11-18T12:02:49;1.30;99.90
20158;DHT22;10239;56.820;24.416;2023-11-18T12:05:17;1.20;99.90
20158;DHT22;10239;56.820;24.416;2023-11-18T12:07:54;1.10;99.90
20158;DHT22;10239;56.820;24.416;2023-11-18T12:10:32;1.10;99.90
20158;DHT22;10239;56.820;24.416;2023-11-18T12:13:12;1.30;99.90
20158;DHT22;10239;56.820;24.416;2023-11-18T12:15:55;1.30;99.90
20158;DHT22;10239;56.820;24.416;2023-11-18T12:18:32;1.30;99.90
20158;DHT22;10239;56.820;24.416;2023-11-18T12:21:01;1.30;99.90
20158;DHT22;10239;56.820;24.416;2023-11-18T12:23:31;1.20;99.90
20158;DHT22;10239;56.820;24.416;2023-11-18T12:26:39;1.30;99.90
20158;DHT22;10239;56.820;24.416;2023-11-18T12:29:33;1.20;99.90
20158;DHT22;10239;56.820;24.416;2023-11-18T12:32:02;1.40;99.90
20158;DHT22;10239;56.820;24.416;2023-11-18T12:34:49;1.60;99.90
20158;DHT22;10239;56.820;24.416;2023-11-18T12:40:30;1.40;99.90
20158;DHT22;10239;56.820;24.416;2023-11-18T12:43:07;1.20;99.90
20158;DHT22;10239;56.820;24.416;2023-11-18T12:46:08;1.10;99.90
20158;DHT22;10239;56.820;24.416;2023-11-18T12:48:43;1.10;99.90
20158;DHT22;10239;56.820;24.416;2023-11-18T12:51:15;1.20;99.90
20158;DHT22;10239;56.820;24.416;2023-11-18T12:53:50;1.10;99.90
20158;DHT22;10239;56.820;24.416;2023-11-18T12:56:22;1.00;99.90
20158;DHT22;10239;56.820;24.416;2023-11-18T12:58:52;1.00;99.90
20158;DHT22;10239;56.820;24.416;2023-11-18T13:01:22;0.90;99.90
20158;DHT22;10239;56.820;24.416;2023-11-18T13:03:50;1.00;99.90
20158;DHT22;10239;56.820;24.416;2023-11-18T13:06:20;0.80;99.90
20158;DHT22;10239;56.820;24.416;2023-11-18T13:08:56;0.80;99.90
20158;DHT22;10239;56.820;24.416;2023-11-18T13:11:28;0.90;99.90
20158;DHT22;10239;56.820;24.416;2023-11-18T13:13:57;0.90;99.90
20158;DHT22;10239;56.820;24.416;2023-11-18T13:16:27;0.80;99.90
20158;DHT22;10239;56.820;24.416;2023-11-18T13:18:55;0.80;99.90
20158;DHT22;10239;56.820;24.416;2023-11-18T13:21:24;0.90;99.90
20158;DHT22;10239;56.820;24.416;2023-11-18T13:23:53;0.80;99.90
20158;DHT22;10239;56.820;24.416;2023-11-18T13:26:21;0.90;99.90
20158;DHT22;10239;56.820;24.416;2023-11-18T13:28:49;0.80;99.90
20158;DHT22;10239;56.820;24.416;2023-11-18T13:31:17;0.70;99.90
20158;DHT22;10239;56.820;24.416;2023-11-18T13:33:48;0.70;99.90
20158;DHT22;10239;56.820;24.416;2023-11-18T13:36:16;0.80;99.90
20158;DHT22;10239;56.820;24.416;2023-11-18T13:38:43;1.00;99.90
20158;DHT22;10239;56.820;24.416;2023-11-18T13:41:12;0.90;99.90
20158;DHT22;10239;56.820;24.416;2023-11-18T13:43:45;1.00;99.90
20158;DHT22;10239;56.820;24.416;2023-11-18T13:46:18;0.80;99.90
20158;DHT22;10239;56.820;24.416;2023-11-18T13:48:49;0.80;99.90
20158;DHT22;10239;56.820;24.416;2023-11-18T13:51:16;0.60;99.90
20158;DHT22;10239;56.820;24.416;2023-11-18T13:53:47;0.70;99.90
20158;DHT22;10239;56.820;24.416;2023-11-18T13:56:15;0.70;99.90
20158;DHT22;10239;56.820;24.416;2023-11-18T13:58:43;0.60;99.90
20158;DHT22;10239;56.820;24.416;2023-11-18T14:01:13;0.80;99.90
20158;DHT22;10239;56.820;24.416;2023-11-18T14:03:44;0.80;99.90
20158;DHT22;10239;56.820;24.416;2023-11-18T14:06:15;0.70;99.90
20158;DHT22;10239;56.820;24.416;2023-11-18T14:08:44;0.60;99.90
20158;DHT22;10239;56.820;24.416;2023-11-18T14:11:12;0.50;99.90
20158;DHT22;10239;56.820;24.416;2023-11-18T14:14:18;0.60;99.90
20158;DHT22;10239;56.820;24.416;2023-11-18T14:17:40;0.70;99.90
20158;DHT22;10239;56.820;24.416;2023-11-18T14:20:36;0.60;99.90
20158;DHT22;10239;56.820;24.416;2023-11-18T14:23:17;0.50;99.90
20158;DHT22;10239;56.820;24.416;2023-11-18T14:25:58;0.50;99.90
20158;DHT22;10239;56.820;24.416;2023-11-18T14:28:56;0.60;99.90
20158;DHT22;10239;56.820;24.416;2023-11-18T14:31:40;0.80;99.90
20158;DHT22;10239;56.820;24.416;2023-11-18T14:34:08;0.70;99.90
20158;DHT22;10239;56.820;24.416;2023-11-18T14:36:37;0.80;99.90
20158;DHT22;10239;56.820;24.416;2023-11-18T14:39:05;1.00;99.90
20158;DHT22;10239;56.820;24.416;2023-11-18T14:41:37;1.00;99.90
20158;DHT22;10239;56.820;24.416;2023-11-18T14:44:05;0.80;99.90
20158;DHT22;10239;56.820;24.416;2023-11-18T14:46:33;0.70;99.90
20158;DHT22;10239;56.820;24.416;2023-11-18T14:49:02;0.70;99.90
20158;DHT22;10239;56.820;24.416;2023-11-18T14:51:30;0.70;99.90
20158;DHT22;10239;56.820;24.416;2023-11-18T14:53:58;0.70;99.90
20158;DHT22;10239;56.820;24.416;2023-11-18T14:56:25;0.70;99.90
20158;DHT22;10239;56.820;24.416;2023-11-18T14:58:52;0.70;99.90
20158;DHT22;10239;56.820;24.416;2023-11-18T15:01:20;0.70;99.90
20158;DHT22;10239;56.820;24.416;2023-11-18T15:03:47;0.90;99.90
20158;DHT22;10239;56.820;24.416;2023-11-18T15:06:24;0.80;99.90
20158;DHT22;10239;56.820;24.416;2023-11-18T15:08:52;0.90;99.90
20158;DHT22;10239;56.820;24.416;2023-11-18T15:11:23;0.90;99.90
20158;DHT22;10239;56.820;24.416;2023-11-18T15:13:53;0.80;99.90
20158;DHT22;10239;56.820;24.416;2023-11-18T15:16:20;1.10;99.90
20158;DHT22;10239;56.820;24.416;2023-11-18T15:18:49;1.10;99.90
20158;DHT22;10239;56.820;24.416;2023-11-18T15:21:20;1.10;99.90
20158;DHT22;10239;56.820;24.416;2023-11-18T15:23:47;0.90;99.90
20158;DHT22;10239;56.820;24.416;2023-11-18T15:26:17;1.00;99.90
20158;DHT22;10239;56.820;24.416;2023-11-18T15:28:44;1.20;99.90
20158;DHT22;10239;56.820;24.416;2023-11-18T15:31:12;0.90;99.90
20158;DHT22;10239;56.820;24.416;2023-11-18T15:33:39;1.10;99.90
20158;DHT22;10239;56.820;24.416;2023-11-18T15:36:09;1.10;99.90
20158;DHT22;10239;56.820;24.416;2023-11-18T15:38:37;1.00;99.90
20158;DHT22;10239;56.820;24.416;2023-11-18T15:41:05;0.90;99.90
20158;DHT22;10239;56.820;24.416;2023-11-18T15:43:32;1.00;99.90
20158;DHT22;10239;56.820;24.416;2023-11-18T15:46:00;1.00;99.90
20158;DHT22;10239;56.820;24.416;2023-11-18T15:48:27;1.10;99.90
20158;DHT22;10239;56.820;24.416;2023-11-18T15:50:56;1.00;99.90
20158;DHT22;10239;56.820;24.416;2023-11-18T15:53:26;1.20;99.90
20158;DHT22;10239;56.820;24.416;2023-11-18T15:55:55;1.00;99.90
20158;DHT22;10239;56.820;24.416;2023-11-18T15:58:22;0.90;99.90
20158;DHT22;10239;56.820;24.416;2023-11-18T16:00:53;0.50;99.90
20158;DHT22;10239;56.820;24.416;2023-11-18T16:03:21;0.50;99.90
20158;DHT22;10239;56.820;24.416;2023-11-18T16:05:48;0.40;99.90